マナウス の空港の天気 - METARとTAF

エドワルド ゴメス国際空港(マナウス) ( SBEG / MAO ) - ブラジル アマゾナス州マナウス
飛行場実況気象(Metar)
観測時間01/23 04:00 AMT (01/23 08:00 UTC)
風向・風速静穏 0m/s
視程10km以上
天気現象
少しの雲 雲底高度 300m
全天の4割程度の雲 雲底高度 1220m
気温24℃
湿度94%
気圧1008hPa
METARSBEG 230800Z 00000KT 9999 FEW010 SCT040 24/23 Q1008
過去の天気等 Google飛行場航空写真 Wunderground天気予報

過去48時間のMETAR

飛行場予報(TAF)
発表時間: 1/23 00:00 AMT (1/23 04:00 UTC)
予報対象時間: 23日2時 AMT ~ 24日2時 AMT
風向・風速静穏
視程10km以上
なし
23日3時 AMT ~ 23日5時 AMT に徐々に
風向・風速東 2m/s
視程10km以上
少しの雲 雲底高度 300m
23日7時 AMT ~ 23日9時 AMT に徐々に
風向・風速北北東 3m/s
全天の4割程度の雲 雲底高度 610m
23日11時 AMT ~ 23日13時 AMT に徐々に
23日15時 AMT ~ 23日17時 AMT に徐々に
風向・風速北東 3m/s
23日19時 AMT ~ 23日21時 AMT に徐々に
風向・風速北北東 1m/s
23日23時 AMT ~ 24日1時 AMT に徐々に
風向・風速北北西 1m/s
TAF SBEG 230400Z 2306/2406 00000KT CAVOK TN24/2307Z TX31/2317Z
BECMG 2307/2309 09003KT 9999 FEW010
BECMG 2311/2313 02005KT SCT020
BECMG 2315/2317 0 5010KT SCT025 FEW030TCU
BECMG 2319/2321 04005KT
BECMG 2323/2401 03002KT CAV OK
BECMG 2403/2405 33002KT RMK PDY